Time;durP1;ratioP1;P1;durP2;ratioP2;P2;SDS_P1;SDS_P2;PMS_P1;PMS_P2;Temp;Humidity;BMP_temperature;BMP_pressure;BME280_temperature;BME280_humidity;BME280_pressure;Samples;Min_cycle;Max_cycle;Signal;HPM_P1;HPM_P2
2023/05/01 00:01:19;;;;;;;8.32;4.88;;;;;;;11.41;nan;-11347.06;5011495;28;20183;-68
2023/05/01 00:03:44;;;;;;;8.18;4.68;;;;;;;11.15;nan;-11345.22;5012518;28;20550;-66
2023/05/01 00:06:10;;;;;;;6.95;4.35;;;;;;;11.29;nan;-11025.97;5012609;28;20176;-67
2023/05/01 00:08:35;;;;;;;9.25;5.10;;;;;;;11.50;nan;-10707.00;5012581;28;20183;-68
2023/05/01 00:11:02;;;;;;;9.32;5.20;;;;;;;11.23;nan;-9744.38;5013533;28;20171;-67
2023/05/01 00:13:28;;;;;;;8.10;4.75;;;;;;;11.50;nan;-9745.63;5018147;28;20605;-68
2023/05/01 00:15:54;;;;;;;7.75;4.88;;;;;;;11.41;nan;-9745.19;5012636;28;20168;-66
2023/05/01 00:18:20;;;;;;;8.05;5.00;;;;;;;11.49;nan;-9745.56;5012377;28;20283;-67
2023/05/01 00:20:46;;;;;;;7.95;4.85;;;;;;;11.36;nan;-9744.94;5012575;28;20263;-67
2023/05/01 00:23:11;;;;;;;7.28;4.93;;;;;;;11.57;nan;-9745.91;5012132;28;20647;-67
2023/05/01 00:25:37;;;;;;;12.40;5.32;;;;;;;11.12;nan;-10384.41;5012099;28;20203;-66
2023/05/01 00:28:04;;;;;;;8.65;4.75;;;;;;;11.21;nan;-10384.94;5012522;28;20176;-67
2023/05/01 00:30:31;;;;;;;7.50;4.78;;;;;;;11.60;nan;-10707.59;5012304;28;20168;-68
2023/05/01 00:32:58;;;;;;;8.70;4.40;;;;;;;11.57;nan;-10707.38;5012271;28;20223;-66
2023/05/01 00:35:23;;;;;;;7.30;4.63;;;;;;;11.70;nan;-11028.69;5012208;28;20183;-68
2023/05/01 00:37:48;;;;;;;8.23;4.60;;;;;;;11.40;nan;-10065.59;5012228;28;20171;-67
2023/05/01 00:40:14;;;;;;;7.70;4.95;;;;;;;11.66;nan;-10066.88;5012271;28;20178;-66
2023/05/01 00:42:39;;;;;;;7.40;4.53;;;;;;;11.62;nan;-9425.53;5012218;28;20650;-67
2023/05/01 00:45:06;;;;;;;8.30;4.93;;;;;;;11.69;nan;-9105.19;5012096;28;20260;-68
2023/05/01 00:47:34;;;;;;;7.35;4.55;;;;;;;11.37;nan;-9745.00;5012340;28;20254;-68
2023/05/01 00:49:59;;;;;;;8.35;4.78;;;;;;;11.22;nan;-9103.53;5012274;28;20631;-67
2023/05/01 00:52:25;;;;;;;9.00;5.38;;;;;;;11.25;nan;-10064.78;5011973;28;20187;-68
2023/05/01 00:54:51;;;;;;;9.32;4.60;;;;;;;11.16;nan;-10064.34;5011636;28;20286;-66
2023/05/01 00:57:20;;;;;;;6.90;4.20;;;;;;;11.50;nan;-9104.53;5011980;28;20554;-67
2023/05/01 00:59:47;;;;;;;7.68;4.63;;;;;;;11.58;nan;-8463.50;5012103;28;20220;-67
2023/05/01 01:02:13;;;;;;;6.45;3.95;;;;;;;11.63;nan;-8463.63;5011857;28;20604;-67
2023/05/01 01:04:41;;;;;;;9.07;4.22;;;;;;;11.61;nan;-8463.59;5011784;28;20180;-67
2023/05/01 01:07:14;;;;;;;6.70;4.60;;;;;;;11.48;nan;-9745.50;5011723;28;20180;-67
2023/05/01 01:09:58;;;;;;;9.18;4.63;;;;;;;11.58;nan;-9425.38;5011989;28;20250;-67
2023/05/01 01:13:05;;;;;;;6.47;4.15;;;;;;;11.27;nan;-9103.72;5011784;28;20564;-66
2023/05/01 01:15:44;;;;;;;6.97;4.15;;;;;;;11.48;nan;-9745.53;4995885;28;20263;-67
2023/05/01 01:18:22;;;;;;;7.28;4.18;;;;;;;11.35;nan;-10706.06;4989612;28;20197;-66
2023/05/01 01:21:02;;;;;;;6.78;4.43;;;;;;;11.19;nan;-11985.78;4995541;28;20222;-66
2023/05/01 01:23:40;;;;;;;5.97;4.03;;;;;;;11.21;nan;-12626.19;5011534;28;20164;-66
2023/05/01 01:26:41;;;;;;;7.05;4.30;;;;;;;11.20;nan;-12946.09;5011137;28;20177;-68
2023/05/01 01:29:31;;;;;;;6.73;4.03;;;;;;;11.35;nan;-12307.34;5010259;28;20204;-67
2023/05/01 01:32:27;;;;;;;9.50;4.70;;;;;;;11.36;nan;-11666.97;5011167;28;20215;-66
2023/05/01 01:35:02;;;;;;;7.30;4.70;;;;;;;11.22;nan;-11986.03;5010907;28;20290;-66
2023/05/01 01:37:56;;;;;;;8.50;4.90;;;;;;;11.15;nan;-12625.56;5014789;28;20186;-67
2023/05/01 01:40:31;;;;;;;6.03;4.30;;;;;;;11.32;nan;-11666.66;5009053;28;20227;-67
2023/05/01 01:43:06;;;;;;;7.95;3.95;;;;;;;11.11;nan;-10384.34;5015129;28;20189;-68
2023/05/01 01:45:45;;;;;;;8.98;4.50;;;;;;;11.26;nan;-10385.22;5013807;28;20684;-67
2023/05/01 01:48:16;;;;;;;6.60;4.30;;;;;;;11.04;nan;-11344.47;5014680;28;20203;-66
2023/05/01 01:50:44;;;;;;;7.18;4.53;;;;;;;10.60;nan;-11980.94;5015213;28;20616;-66
2023/05/01 01:53:14;;;;;;;6.70;4.40;;;;;;;10.76;nan;-11342.38;5014868;28;20207;-66
2023/05/01 01:55:40;;;;;;;7.43;4.43;;;;;;;10.66;nan;-12301.25;5014073;28;20184;-66
2023/05/01 01:58:09;;;;;;;6.05;4.00;;;;;;;10.47;nan;-12619.31;5014667;28;20643;-67
2023/05/01 02:00:35;;;;;;;7.15;4.35;;;;;;;10.87;nan;-12623.06;5015157;28;20160;-67
2023/05/01 02:03:02;;;;;;;7.28;4.35;;;;;;;10.52;nan;-11980.31;5015363;28;20176;-67
2023/05/01 02:05:30;;;;;;;6.30;4.27;;;;;;;10.64;nan;-11661.47;5014809;28;20176;-68
2023/05/01 02:07:57;;;;;;;8.90;5.15;;;;;;;10.69;nan;-11981.69;5014832;28;20184;-67
2023/05/01 02:10:24;;;;;;;7.63;4.60;;;;;;;10.47;nan;-11979.88;5014920;28;20180;-68
2023/05/01 02:12:52;;;;;;;9.15;4.90;;;;;;;10.12;nan;-12616.09;5014440;28;20553;-68
2023/05/01 02:15:19;;;;;;;8.23;5.40;;;;;;;10.12;nan;-13255.00;5014984;28;20164;-67
2023/05/01 02:17:45;;;;;;;8.30;4.93;;;;;;;9.99;nan;-13573.00;5014453;28;20562;-67
2023/05/01 02:20:12;;;;;;;8.60;4.70;;;;;;;9.92;nan;-13252.91;5020315;28;20176;-67
2023/05/01 02:22:41;;;;;;;8.17;4.87;;;;;;;10.19;nan;-12936.28;5015105;28;20180;-66
2023/05/01 02:25:11;;;;;;;5.83;4.33;;;;;;;10.46;nan;-11979.81;5014292;28;20176;-67
2023/05/01 02:27:46;;;;;;;7.93;4.10;;;;;;;10.19;nan;-11977.63;5014710;28;20171;-67
2023/05/01 02:30:12;;;;;;;7.33;4.57;;;;;;;10.54;nan;-11660.66;5014520;28;20160;-66
2023/05/01 02:32:38;;;;;;;8.67;4.83;;;;;;;10.38;nan;-12298.81;5014364;28;20226;-66
2023/05/01 02:35:04;;;;;;;8.70;4.70;;;;;;;10.06;nan;-12615.50;5014311;28;20242;-66
2023/05/01 02:37:30;;;;;;;7.47;4.57;;;;;;;10.33;nan;-13576.72;5013993;28;20218;-67
2023/05/01 02:39:56;;;;;;;6.83;4.40;;;;;;;10.26;nan;-13575.97;5014296;28;20183;-66
2023/05/01 02:42:23;;;;;;;8.20;4.57;;;;;;;10.25;nan;-13895.31;5014207;28;20219;-66
2023/05/01 02:45:05;;;;;;;8.17;4.47;;;;;;;10.05;nan;-14212.34;5014233;28;20176;-67
2023/05/01 02:47:34;;;;;;;8.57;4.37;;;;;;;9.90;nan;-14210.53;5014192;28;20214;-67
2023/05/01 02:50:00;;;;;;;9.63;4.70;;;;;;;10.22;nan;-13894.91;5013911;28;20570;-67
2023/05/01 02:52:26;;;;;;;6.43;4.80;;;;;;;9.95;nan;-13572.56;5014177;28;20195;-67
2023/05/01 02:54:51;;;;;;;8.10;5.07;;;;;;;10.02;nan;-13573.31;5014027;28;20211;-67
2023/05/01 02:57:17;;;;;;;7.00;4.33;;;;;;;9.91;nan;-14210.66;5014202;28;20222;-67
2023/05/01 02:59:43;;;;;;;6.70;4.60;;;;;;;10.00;nan;-14531.00;5013692;28;20228;-67
2023/05/01 03:02:08;;;;;;;7.90;4.77;;;;;;;10.08;nan;-13893.34;5013758;28;20256;-67
2023/05/01 03:04:34;;;;;;;7.73;4.40;;;;;;;10.07;nan;-14531.88;5013770;28;20259;-67
2023/05/01 03:06:59;;;;;;;7.17;4.27;;;;;;;9.75;nan;-15166.19;5013979;28;20620;-68
2023/05/01 03:09:25;;;;;;;7.17;4.53;;;;;;;10.13;nan;-15171.22;5013758;28;20255;-67
2023/05/01 03:11:50;;;;;;;7.33;4.27;;;;;;;10.06;nan;-15808.63;5014074;28;20186;-66
2023/05/01 03:14:16;;;;;;;7.77;5.03;;;;;;;9.59;nan;-17077.22;5013418;28;20196;-68
2023/05/01 03:16:41;;;;;;;7.90;4.50;;;;;;;9.47;nan;-18031.34;5013516;28;20168;-66
2023/05/01 03:19:06;;;;;;;8.77;5.03;;;;;;;9.62;nan;-18671.47;5013506;28;20194;-66
2023/05/01 03:21:33;;;;;;;8.93;5.27;;;;;;;9.55;nan;-18670.00;5013478;28;20180;-68
2023/05/01 03:23:58;;;;;;;7.00;4.30;;;;;;;9.83;nan;-18675.44;5019913;28;20172;-68
2023/05/01 03:26:24;;;;;;;7.07;4.33;;;;;;;9.93;nan;-18677.38;5013283;28;20198;-66
2023/05/01 03:28:50;;;;;;;9.67;5.20;;;;;;;9.54;nan;-18351.28;5012992;28;20175;-68
2023/05/01 03:31:15;;;;;;;11.27;4.93;;;;;;;9.80;nan;-18674.75;5013218;28;20168;-67
2023/05/01 03:33:41;;;;;;;7.33;4.43;;;;;;;10.10;nan;-16447.50;5013653;28;20200;-66
2023/05/01 03:36:09;;;;;;;7.27;4.77;;;;;;;11.20;nan;-8462.59;5013239;28;20168;-66
2023/05/01 03:38:34;;;;;;;5.37;3.93;;;;;;;12.19;nan;5044.31;5013213;28;20640;-67
2023/05/01 03:40:59;;;;;;;7.30;4.57;;;;;;;12.84;nan;18636.59;5013127;28;20172;-67
2023/05/01 03:43:25;;;;;;;6.80;4.47;;;;;;;13.99;nan;43489.34;5012969;28;20738;-67
2023/05/01 03:45:51;;;;;;;9.90;4.70;;;;;;;14.47;nan;56657.78;5013576;28;20171;-67
2023/05/01 03:48:20;;;;;;;8.07;4.45;;;;;;;15.86;nan;59289.41;5013208;28;20176;-67
2023/05/01 03:50:45;;;;;;;7.70;3.42;;;;;;;16.35;nan;60164.66;5013141;28;20180;-67
2023/05/01 03:53:12;;;;;;;6.13;3.40;;;;;;;17.04;nan;60725.38;5012798;28;20192;-67
2023/05/01 03:55:38;;;;;;;5.60;3.80;;;;;;;17.03;nan;60928.13;5012692;28;20267;-66
2023/05/01 03:58:04;;;;;;;6.55;3.78;;;;;;;18.00;nan;61123.34;5011783;28;20176;-68
2023/05/01 04:00:31;;;;;;;5.72;3.45;;;;;;;18.07;nan;61239.81;5013078;28;20172;-68
2023/05/01 04:02:56;;;;;;;5.05;3.70;;;;;;;18.72;nan;61350.88;5012730;28;20190;-67
2023/05/01 04:05:22;;;;;;;6.53;3.58;;;;;;;19.35;nan;61509.56;5012838;28;20172;-66
2023/05/01 04:07:47;;;;;;;5.95;3.58;;;;;;;19.76;nan;61620.25;5011887;28;20180;-67
2023/05/01 04:10:13;;;;;;;5.63;3.25;;;;;;;20.41;nan;61633.69;5012418;28;20245;-67
2023/05/01 04:12:38;;;;;;;6.22;3.90;;;;;;;19.80;nan;61635.72;5010213;28;20250;-69
2023/05/01 04:15:04;;;;;;;7.32;3.67;;;;;;;19.15;nan;61697.28;5011162;28;20560;-66
2023/05/01 04:17:30;;;;;;;5.63;3.63;;;;;;;18.50;nan;61476.63;5012098;28;20267;-67
2023/05/01 04:19:56;;;;;;;5.32;3.47;;;;;;;19.22;nan;61518.19;5009917;28;20623;-66
2023/05/01 04:22:22;;;;;;;6.18;3.65;;;;;;;19.63;nan;61580.16;5011235;28;20213;-66
2023/05/01 04:24:50;;;;;;;5.60;3.47;;;;;;;20.05;nan;61644.78;5011292;28;20628;-67
2023/05/01 04:27:16;;;;;;;7.47;3.45;;;;;;;20.38;nan;61697.22;5016674;28;20282;-67
2023/05/01 04:29:42;;;;;;;4.97;3.45;;;;;;;20.45;nan;61697.34;5011602;28;20294;-68
2023/05/01 04:32:07;;;;;;;5.50;3.50;;;;;;;20.63;nan;61761.91;5011590;28;20263;-67
2023/05/01 04:34:32;;;;;;;4.68;3.20;;;;;;;20.44;nan;61727.94;5010556;28;20295;-68
2023/05/01 04:36:58;;;;;;;5.15;3.13;;;;;;;19.64;nan;61602.03;5011559;28;20198;-68
2023/05/01 04:39:23;;;;;;;4.93;3.42;;;;;;;19.01;nan;61566.91;5010413;28;20180;-68
2023/05/01 04:41:49;;;;;;;4.60;3.10;;;;;;;17.81;nan;61435.88;5010061;28;20172;-67
2023/05/01 04:44:15;;;;;;;4.25;3.08;;;;;;;17.73;nan;61421.09;5009307;28;20198;-66
2023/05/01 04:46:40;;;;;;;5.40;3.50;;;;;;;17.12;nan;61320.25;5005466;28;20183;-67
2023/05/01 04:49:06;;;;;;;4.68;3.05;;;;;;;16.93;nan;61262.06;5003510;28;20207;-66
2023/05/01 04:51:32;;;;;;;5.30;3.30;;;;;;;16.68;nan;61250.47;5003347;28;20287;-66
2023/05/01 04:53:57;;;;;;;4.43;3.08;;;;;;;17.21;nan;61273.03;5004353;28;20204;-66
2023/05/01 04:56:24;;;;;;;4.57;3.33;;;;;;;17.18;nan;61280.00;5003024;28;20191;-67
2023/05/01 04:58:50;;;;;;;4.80;3.10;;;;;;;16.68;nan;61219.53;5004783;28;20707;-66
2023/05/01 05:01:15;;;;;;;4.20;3.40;;;;;;;16.48;nan;61217.00;5003526;28;20262;-67
2023/05/01 05:03:41;;;;;;;5.05;3.25;;;;;;;16.15;nan;61121.63;5010448;28;20183;-67
2023/05/01 05:06:07;;;;;;;4.68;3.42;;;;;;;16.03;nan;61174.53;5005826;28;20180;-65
2023/05/01 05:08:32;;;;;;;6.07;3.75;;;;;;;15.98;nan;61107.06;5005969;28;20206;-65
2023/05/01 05:11:01;;;;;;;4.55;3.55;;;;;;;15.78;nan;61211.84;5011181;28;20195;-67
2023/05/01 05:13:27;;;;;;;5.47;3.30;;;;;;;15.82;nan;61064.38;5014768;28;20235;-70
2023/05/01 05:15:53;;;;;;;4.15;2.83;;;;;;;15.55;nan;60989.66;5013331;28;20172;-69
2023/05/01 05:18:18;;;;;;;6.45;3.67;;;;;;;15.31;nan;60984.34;5015315;28;20187;-71
2023/05/01 05:20:44;;;;;;;5.93;3.47;;;;;;;14.84;nan;60862.03;5015482;28;20603;-75
2023/05/01 05:23:09;;;;;;;7.55;4.53;;;;;;;14.88;nan;60930.84;5013823;28;20198;-69
2023/05/01 05:25:35;;;;;;;6.60;3.88;;;;;;;15.04;nan;60836.19;5012409;28;20219;-70
2023/05/01 05:28:00;;;;;;;6.80;3.80;;;;;;;15.34;nan;60974.28;5014207;28;20212;-68
2023/05/01 05:30:26;;;;;;;6.75;4.13;;;;;;;15.71;nan;61139.56;5022200;28;20188;-70
2023/05/01 05:32:52;;;;;;;7.03;3.90;;;;;;;15.72;nan;60978.44;5013805;28;20247;-70
2023/05/01 05:35:17;;;;;;;5.85;3.55;;;;;;;15.69;nan;60913.25;5014308;28;20180;-69
2023/05/01 05:37:43;;;;;;;5.97;3.75;;;;;;;15.63;nan;60937.41;5013810;28;20499;-70
2023/05/01 05:40:09;;;;;;;6.40;3.92;;;;;;;15.57;nan;60912.66;5014589;28;20211;-72
2023/05/01 05:42:35;;;;;;;6.88;3.60;;;;;;;15.43;nan;60974.69;5014922;28;20266;-69
2023/05/01 05:45:00;;;;;;;6.20;4.15;;;;;;;15.95;nan;61191.28;5014843;28;20698;-73
2023/05/01 05:47:26;;;;;;;4.97;3.50;;;;;;;16.10;nan;61051.00;5014881;28;20188;-70
2023/05/01 05:49:51;;;;;;;5.35;3.53;;;;;;;16.03;nan;61051.41;5014872;28;20180;-72
2023/05/01 05:52:16;;;;;;;4.55;3.40;;;;;;;15.86;nan;61029.69;5014589;28;20556;-71
2023/05/01 05:54:42;;;;;;;7.93;3.65;;;;;;;16.27;nan;61098.50;5014294;28;20283;-69
2023/05/01 05:57:07;;;;;;;6.28;3.78;;;;;;;16.49;nan;61045.94;5014664;28;20566;-69
2023/05/01 05:59:33;;;;;;;5.00;3.47;;;;;;;16.45;nan;61038.84;5014357;28;20219;-70
2023/05/01 06:01:58;;;;;;;5.57;3.50;;;;;;;16.75;nan;61173.25;5014185;28;20180;-70
2023/05/01 06:04:23;;;;;;;4.38;3.45;;;;;;;16.88;nan;61207.97;5014667;28;20168;-70
2023/05/01 06:06:50;;;;;;;4.93;3.40;;;;;;;16.90;nan;61209.66;5014780;28;20172;-71
2023/05/01 06:09:18;;;;;;;6.03;3.50;;;;;;;17.15;nan;61263.69;5014158;28;20175;-70
2023/05/01 06:11:44;;;;;;;4.78;3.30;;;;;;;17.03;nan;61183.03;5014540;28;20180;-70
2023/05/01 06:14:10;;;;;;;4.30;3.17;;;;;;;17.21;nan;61330.41;5014319;28;20208;-71
2023/05/01 06:16:36;;;;;;;4.15;2.80;;;;;;;17.51;nan;61376.09;5014160;28;20759;-72
2023/05/01 06:19:02;;;;;;;6.28;3.33;;;;;;;17.55;nan;61388.38;5014174;28;20263;-69
2023/05/01 06:21:27;;;;;;;4.00;2.72;;;;;;;17.51;nan;61363.75;5013427;28;20168;-69
2023/05/01 06:23:53;;;;;;;4.28;2.80;;;;;;;18.15;nan;61478.41;5013725;28;20188;-69
2023/05/01 06:26:18;;;;;;;3.63;2.75;;;;;;;18.05;nan;61452.13;5010497;28;20191;-70
2023/05/01 06:28:44;;;;;;;3.80;2.80;;;;;;;17.90;nan;61458.41;5011378;28;20184;-69
2023/05/01 06:31:09;;;;;;;3.58;2.67;;;;;;;17.97;nan;61515.47;5013507;28;20176;-69
2023/05/01 06:33:34;;;;;;;3.00;2.53;;;;;;;18.31;nan;61530.69;5020547;28;20207;-69
2023/05/01 06:36:00;;;;;;;4.28;2.85;;;;;;;18.36;nan;61500.16;5014930;28;20176;-70
2023/05/01 06:38:26;;;;;;;5.60;2.70;;;;;;;18.25;nan;61430.25;5013740;28;20172;-70
2023/05/01 06:40:51;;;;;;;6.22;3.50;;;;;;;18.34;nan;61500.47;5012723;28;20180;-70
2023/05/01 06:43:17;;;;;;;4.45;2.80;;;;;;;18.01;nan;61605.31;5013671;28;20176;-69
2023/05/01 06:45:42;;;;;;;4.35;3.10;;;;;;;17.94;nan;61493.97;5013988;28;20518;-69
2023/05/01 06:48:08;;;;;;;3.38;2.65;;;;;;;17.92;nan;61492.28;5014324;28;20179;-69
2023/05/01 06:50:33;;;;;;;7.22;3.00;;;;;;;18.24;nan;61499.50;5013756;28;20177;-69
2023/05/01 06:53:01;;;;;;;4.57;2.70;;;;;;;18.56;nan;61695.03;5013551;28;20168;-71
2023/05/01 06:55:29;;;;;;;4.07;3.08;;;;;;;18.86;nan;61576.38;5013954;28;20165;-70
2023/05/01 06:57:56;;;;;;;4.68;3.13;;;;;;;19.02;nan;61601.69;5013864;28;20176;-70
2023/05/01 07:00:21;;;;;;;5.30;2.80;;;;;;;18.99;nan;61575.56;5014054;28;20266;-69
2023/05/01 07:02:46;;;;;;;7.10;3.03;;;;;;;18.76;nan;61570.78;5013125;28;20271;-68
2023/05/01 07:05:12;;;;;;;4.40;3.00;;;;;;;19.22;nan;61624.94;5013081;28;20583;-69
2023/05/01 07:07:37;;;;;;;6.88;3.00;;;;;;;19.16;nan;61633.09;5013369;28;20198;-70
2023/05/01 07:10:03;;;;;;;6.10;3.25;;;;;;;18.89;nan;61592.72;5012283;28;20687;-70
2023/05/01 07:12:28;;;;;;;4.07;2.97;;;;;;;18.93;nan;61599.84;5013272;28;20208;-70
2023/05/01 07:14:55;;;;;;;4.90;3.20;;;;;;;19.03;nan;61582.13;5012921;28;20208;-69
2023/05/01 07:17:21;;;;;;;3.53;2.70;;;;;;;19.23;nan;61620.91;5013426;28;20199;-69
2023/05/01 07:19:46;;;;;;;7.00;3.33;;;;;;;19.35;nan;61701.88;5012020;28;20184;-70
2023/05/01 07:22:12;;;;;;;3.75;2.78;;;;;;;19.37;nan;61646.56;5012833;28;20238;-70
2023/05/01 07:24:37;;;;;;;4.85;2.90;;;;;;;19.59;nan;61678.75;5012552;28;20165;-70
2023/05/01 07:27:03;;;;;;;4.03;2.72;;;;;;;19.29;nan;61622.50;5011878;28;20671;-71
2023/05/01 07:29:28;;;;;;;4.00;3.00;;;;;;;19.03;nan;61593.03;5011889;28;20222;-70
2023/05/01 07:31:54;;;;;;;4.63;3.00;;;;;;;19.14;nan;61621.06;5013030;28;20694;-69
2023/05/01 07:34:19;;;;;;;4.55;3.15;;;;;;;19.71;nan;61697.53;5011758;28;20191;-71
2023/05/01 07:36:45;;;;;;;4.43;3.13;;;;;;;19.87;nan;61710.50;5021274;28;20179;-70
2023/05/01 07:39:11;;;;;;;3.90;2.97;;;;;;;20.06;nan;61946.81;5012933;28;20557;-70
2023/05/01 07:41:36;;;;;;;4.03;2.70;;;;;;;20.02;nan;61745.69;5012547;28;20175;-70
2023/05/01 07:44:01;;;;;;;5.20;3.08;;;;;;;20.04;nan;61747.94;5012935;28;20330;-71
2023/05/01 07:46:27;;;;;;;4.85;3.20;;;;;;;20.13;nan;61773.75;5012898;28;20172;-71
2023/05/01 07:48:52;;;;;;;4.50;2.60;;;;;;;20.15;nan;61820.13;5011365;28;20191;-71
2023/05/01 07:51:18;;;;;;;4.43;3.10;;;;;;;20.28;nan;61762.22;5012517;28;20215;-70
2023/05/01 07:53:45;;;;;;;3.95;2.80;;;;;;;19.72;nan;61847.03;5012580;28;20234;-69
2023/05/01 07:56:10;;;;;;;4.32;3.05;;;;;;;19.65;nan;61696.47;5012440;28;20190;-71
2023/05/01 07:58:36;;;;;;;3.97;2.75;;;;;;;20.12;nan;61736.28;5011003;28;20695;-71
2023/05/01 08:01:02;;;;;;;4.25;2.85;;;;;;;19.88;nan;61731.81;5011912;28;20172;-69
2023/05/01 08:03:28;;;;;;;5.22;3.10;;;;;;;19.45;nan;61670.63;5012488;28;20176;-71
2023/05/01 08:05:54;;;;;;;3.88;2.85;;;;;;;19.94;nan;61710.09;5011922;28;20558;-71
2023/05/01 08:08:20;;;;;;;4.00;2.78;;;;;;;20.20;nan;61711.06;5012088;28;20183;-70
2023/05/01 08:10:46;;;;;;;3.22;2.63;;;;;;;20.38;nan;61806.78;5012025;28;20168;-70
2023/05/01 08:13:12;;;;;;;4.10;2.83;;;;;;;20.48;nan;61773.44;5012132;28;20200;-71
2023/05/01 08:15:38;;;;;;;4.20;2.65;;;;;;;20.62;nan;61893.19;5012063;28;20198;-70
2023/05/01 08:18:06;;;;;;;3.67;2.85;;;;;;;20.41;nan;61775.88;5011900;28;20176;-71
2023/05/01 08:20:32;;;;;;;4.30;2.80;;;;;;;20.43;nan;61749.59;5011654;28;20168;-71
2023/05/01 08:22:57;;;;;;;5.53;2.88;;;;;;;20.68;nan;62019.47;5012563;28;20167;-70
2023/05/01 08:25:23;;;;;;;3.95;2.70;;;;;;;20.70;nan;61819.19;5012201;28;20569;-70
2023/05/01 08:27:49;;;;;;;3.95;2.58;;;;;;;21.14;nan;61845.25;5010681;28;20184;-71
2023/05/01 08:30:14;;;;;;;3.67;2.65;;;;;;;21.50;nan;61846.59;5012422;28;20226;-71
2023/05/01 08:32:40;;;;;;;4.82;2.67;;;;;;;21.56;nan;61890.38;5012117;28;20172;-70
2023/05/01 08:35:05;;;;;;;4.70;3.17;;;;;;;21.75;nan;61914.00;5011869;28;20202;-70
2023/05/01 08:37:31;;;;;;;4.68;3.10;;;;;;;21.24;nan;61926.22;5016145;28;20203;-72
2023/05/01 08:39:56;;;;;;;4.35;3.17;;;;;;;20.63;nan;61801.41;5014118;28;20168;-72
2023/05/01 08:42:22;;;;;;;4.90;3.22;;;;;;;21.29;nan;61851.91;5012117;28;20172;-72
2023/05/01 08:44:49;;;;;;;5.35;3.08;;;;;;;21.41;nan;61919.56;5011771;28;20611;-72
2023/05/01 08:47:16;;;;;;;4.82;3.03;;;;;;;21.49;nan;61913.63;5011438;28;20180;-71
2023/05/01 08:49:42;;;;;;;3.80;2.80;;;;;;;21.53;nan;61912.41;5011868;28;20648;-71
2023/05/01 08:52:11;;;;;;;3.97;2.70;;;;;;;21.12;nan;61972.91;5011944;28;20199;-72
2023/05/01 08:54:40;;;;;;;4.95;2.47;;;;;;;21.25;nan;61854.59;5011786;28;20199;-72
2023/05/01 08:57:08;;;;;;;3.50;2.60;;;;;;;20.88;nan;61824.06;5011234;28;20738;-72
2023/05/01 08:59:34;;;;;;;4.00;2.75;;;;;;;21.07;nan;61871.06;5012072;28;20281;-72
2023/05/01 09:02:03;;;;;;;3.28;2.42;;;;;;;20.96;nan;62040.97;5012023;28;20172;-72
2023/05/01 09:04:34;;;;;;;3.67;2.60;;;;;;;21.48;nan;61901.53;5011294;28;20216;-71
2023/05/01 09:07:00;;;;;;;3.13;2.25;;;;;;;21.34;nan;61857.59;5011789;28;20179;-71
2023/05/01 09:09:27;;;;;;;3.42;2.38;;;;;;;21.03;nan;61858.72;5009857;28;20180;-71
2023/05/01 09:12:00;;;;;;;3.45;2.50;;;;;;;21.21;nan;61863.03;5011503;28;20168;-72
2023/05/01 09:14:25;;;;;;;3.85;2.58;;;;;;;21.69;nan;61946.19;5011224;28;20294;-73
2023/05/01 09:16:51;;;;;;;3.67;2.65;;;;;;;21.92;nan;61961.38;5011124;28;20720;-72
2023/05/01 09:19:17;;;;;;;5.53;2.45;;;;;;;21.67;nan;61927.75;5011640;28;20172;-72
2023/05/01 09:21:43;;;;;;;3.50;2.55;;;;;;;21.63;nan;61933.63;5010625;28;20179;-70
2023/05/01 09:24:08;;;;;;;3.08;2.40;;;;;;;22.09;nan;61954.16;5011212;28;20663;-70
2023/05/01 09:26:38;;;;;;;3.08;2.40;;;;;;;22.25;nan;61995.78;5011136;28;20184;-71
2023/05/01 09:29:05;;;;;;;2.92;2.38;;;;;;;22.43;nan;62063.72;5010342;28;20212;-71
2023/05/01 09:31:33;;;;;;;3.03;2.42;;;;;;;22.07;nan;61936.28;5011567;28;20651;-71
2023/05/01 09:34:01;;;;;;;2.75;2.17;;;;;;;22.16;nan;61946.50;5012122;28;20230;-74
2023/05/01 09:36:29;;;;;;;2.97;2.30;;;;;;;22.10;nan;61968.31;5012596;28;20263;-74
2023/05/01 09:39:01;;;;;;;3.90;2.58;;;;;;;22.27;nan;62063.16;5044316;28;20211;-70
2023/05/01 09:41:27;;;;;;;3.30;2.30;;;;;;;22.05;nan;61958.00;5017683;28;20258;-72
2023/05/01 09:43:57;;;;;;;2.55;1.85;;;;;;;21.76;nan;61961.97;5011783;28;20275;-68
2023/05/01 09:46:24;;;;;;;3.30;2.30;;;;;;;21.96;nan;61924.34;5011948;28;20176;-71
2023/05/01 09:49:02;;;;;;;2.90;2.45;;;;;;;22.28;nan;61950.31;5010062;28;20250;-70
2023/05/01 09:51:31;;;;;;;3.03;2.25;;;;;;;22.22;nan;62011.19;5010717;28;20604;-68
2023/05/01 09:53:58;;;;;;;3.47;2.58;;;;;;;22.46;nan;62020.28;5010218;28;20204;-68
2023/05/01 09:56:30;;;;;;;2.97;2.42;;;;;;;22.81;nan;62077.81;5010011;28;20212;-70
2023/05/01 09:58:57;;;;;;;3.28;2.30;;;;;;;22.64;nan;62052.66;5015286;28;20231;-69
2023/05/01 10:01:41;;;;;;;3.13;2.30;;;;;;;23.12;nan;62130.78;5012808;28;20180;-69
2023/05/01 10:04:08;;;;;;;2.90;2.40;;;;;;;22.92;nan;62107.44;5014732;28;20667;-72
2023/05/01 10:06:35;;;;;;;3.75;2.33;;;;;;;23.38;nan;62159.88;5014082;28;20255;-70
2023/05/01 10:09:01;;;;;;;3.63;2.83;;;;;;;23.34;nan;62294.09;5014268;28;20176;-71
2023/05/01 10:11:27;;;;;;;3.00;2.45;;;;;;;23.48;nan;62179.13;5015446;28;20184;-70
2023/05/01 10:14:07;;;;;;;3.08;2.38;;;;;;;23.44;nan;62135.44;5012383;28;20260;-70
2023/05/01 10:16:35;;;;;;;3.03;2.33;;;;;;;22.49;nan;62025.72;5013662;28;20707;-69
2023/05/01 10:19:02;;;;;;;3.15;2.42;;;;;;;21.74;nan;61940.91;5014519;28;20222;-69
2023/05/01 10:21:27;;;;;;;3.67;2.40;;;;;;;22.06;nan;61972.13;5014264;28;20230;-69
2023/05/01 10:23:54;;;;;;;3.15;2.17;;;;;;;21.85;nan;61911.81;5014544;28;20176;-67
2023/05/01 10:26:19;;;;;;;4.65;3.00;;;;;;;22.23;nan;61944.06;5014224;28;20173;-67
2023/05/01 10:28:46;;;;;;;4.10;2.55;;;;;;;22.11;nan;61964.25;5014548;28;20180;-69
2023/05/01 10:31:12;;;;;;;2.88;2.22;;;;;;;22.71;nan;62042.97;5014793;28;20277;-69
2023/05/01 10:33:39;;;;;;;3.38;2.20;;;;;;;22.75;nan;62065.75;5014381;28;20731;-67
2023/05/01 10:36:10;;;;;;;2.88;2.30;;;;;;;22.55;nan;62037.19;5013965;28;20176;-67
2023/05/01 10:38:37;;;;;;;3.85;2.40;;;;;;;22.13;nan;61943.66;5014215;28;20168;-69
2023/05/01 10:41:02;;;;;;;3.42;2.55;;;;;;;22.70;nan;62057.47;5014618;28;20172;-69
2023/05/01 10:43:29;;;;;;;3.55;2.50;;;;;;;22.78;nan;62056.16;5018906;28;20180;-69
2023/05/01 10:46:07;;;;;;;3.47;2.60;;;;;;;22.86;nan;62000.09;5014427;28;20180;-68
2023/05/01 10:48:38;;;;;;;3.42;2.33;;;;;;;22.02;nan;61994.19;5013987;28;20207;-67
2023/05/01 10:51:11;;;;;;;2.53;2.03;;;;;;;21.80;nan;61943.13;5014245;28;20183;-67
2023/05/01 10:53:38;;;;;;;3.45;2.38;;;;;;;21.88;nan;61910.59;5014430;28;20196;-69
2023/05/01 10:56:04;;;;;;;3.78;2.22;;;;;;;21.15;nan;62080.84;5014599;28;20655;-68
2023/05/01 10:58:36;;;;;;;4.78;2.15;;;;;;;21.07;nan;61817.06;5013420;28;20719;-70
2023/05/01 11:01:30;;;;;;;3.60;2.25;;;;;;;21.69;nan;61906.63;5014427;28;20178;-69
2023/05/01 11:04:21;;;;;;;2.58;2.03;;;;;;;21.58;nan;61905.66;5014378;28;20164;-68
2023/05/01 11:07:06;;;;;;;2.88;2.45;;;;;;;21.49;nan;61856.44;5014074;28;20180;-69
2023/05/01 11:09:39;;;;;;;2.22;2.03;;;;;;;21.12;nan;61853.38;5014048;28;20195;-68
2023/05/01 11:12:07;;;;;;;3.20;2.13;;;;;;;21.05;nan;61819.41;5014212;28;20169;-68
2023/05/01 11:15:04;;;;;;;2.30;1.98;;;;;;;21.47;nan;61897.78;5013926;28;20274;-67
2023/05/01 11:17:39;;;;;;;4.38;2.58;;;;;;;21.58;nan;61881.69;5011937;28;20198;-68
2023/05/01 11:20:06;;;;;;;3.55;2.20;;;;;;;21.77;nan;62192.03;5013701;28;20179;-67
2023/05/01 11:22:33;;;;;;;2.55;2.17;;;;;;;21.78;nan;61909.63;5013951;28;20211;-67
2023/05/01 11:24:59;;;;;;;3.90;2.53;;;;;;;21.88;nan;61990.66;5015223;28;20659;-67
2023/05/01 11:27:26;;;;;;;3.15;2.50;;;;;;;22.22;nan;61950.72;5014604;28;20263;-67
2023/05/01 11:29:53;;;;;;;3.90;2.30;;;;;;;22.42;nan;62012.53;5015082;28;20176;-68
2023/05/01 11:32:23;;;;;;;4.65;2.63;;;;;;;22.52;nan;62034.31;5014440;28;20172;-66
2023/05/01 11:34:50;;;;;;;2.83;2.22;;;;;;;21.85;nan;61941.00;5014421;28;20298;-68
2023/05/01 11:37:15;;;;;;;3.05;2.13;;;;;;;21.63;nan;61939.38;5014026;28;20707;-66
2023/05/01 11:39:52;;;;;;;3.53;2.25;;;;;;;21.16;nan;61811.16;5012877;28;20264;-69
2023/05/01 11:42:20;;;;;;;3.80;2.70;;;;;;;21.03;nan;61809.94;5011370;28;20176;-70
2023/05/01 11:45:04;;;;;;;3.10;2.30;;;;;;;20.52;nan;61820.09;5013560;28;20506;-66
2023/05/01 11:47:33;;;;;;;3.00;2.38;;;;;;;20.17;nan;61827.56;5013973;28;20172;-68
2023/05/01 11:50:00;;;;;;;3.13;2.35;;;;;;;20.81;nan;61813.50;5012922;28;20156;-69
2023/05/01 11:52:26;;;;;;;3.55;2.50;;;;;;;21.11;nan;61798.22;5012560;28;20169;-67